Mendon, Utah
Current Conditions -  °F | °C
As of 10:51 AM on Thursday 30 Oct 2014 (Local Time) from KLGU Reporting Station
Clear Clear  
Wind Chill: 48°   Ceiling: Unl
Heat Index: 48°   Visibility: 10mi
Dew Point: 30°   Wind: 3mph
Humidity: 50%   Direction: 10°N
Pressure: 30.3"   Gusts: NA
Location:  41.71°N, 111.98°W
Report Text: KLGU 301651Z AUTO 01003KT 10SM CLR 09/M01 A3030 RMK AO2 SLP254 T00891011 TSNO
Loading
Personal Weather Stations






























Interactive Weather Map
Tropical Storm Tracking
New forecast layout! Learn more

10-Day Weather Forecast

Advertisements
Track Severe Weather on mobile